Time;durP1;ratioP1;P1;durP2;ratioP2;P2;SDS_P1;SDS_P2;PMS_P1;PMS_P2;Temp;Humidity;BMP_temperature;BMP_pressure;BME280_temperature;BME280_humidity;BME280_pressure;Samples;Min_cycle;Max_cycle;Signal;HPM_P1;HPM_P2
2022/07/15 00:01:06;;;;;;;8.35;2.10;;;14.20;99.90;;;;;;4961624;28;20522;-58
2022/07/15 00:03:31;;;;;;;9.15;2.13;;;14.20;99.90;;;;;;4962638;28;20054;-58
2022/07/15 00:05:57;;;;;;;8.80;2.38;;;14.20;99.90;;;;;;4961609;28;20390;-57
2022/07/15 00:08:23;;;;;;;6.35;1.63;;;14.20;99.90;;;;;;4972556;28;20482;-59
2022/07/15 00:10:48;;;;;;;8.05;1.88;;;14.20;99.90;;;;;;4962333;28;20105;-59
2022/07/15 00:13:14;;;;;;;8.88;1.90;;;14.20;99.90;;;;;;4977497;28;20506;-58
2022/07/15 00:15:40;;;;;;;11.43;2.08;;;14.30;99.90;;;;;;4961593;28;20061;-58
2022/07/15 00:18:06;;;;;;;11.88;2.20;;;14.20;99.90;;;;;;4962865;28;20506;-59
2022/07/15 00:20:35;;;;;;;9.18;1.80;;;14.20;99.90;;;;;;4961789;28;20617;-58
2022/07/15 00:23:02;;;;;;;12.18;2.00;;;14.20;99.90;;;;;;4962427;28;20058;-57
2022/07/15 00:25:28;;;;;;;8.30;2.05;;;14.20;99.90;;;;;;4962139;28;20074;-57
2022/07/15 00:27:57;;;;;;;10.45;2.33;;;14.20;99.90;;;;;;4961929;28;20078;-58
2022/07/15 00:30:24;;;;;;;9.40;1.92;;;14.20;99.90;;;;;;4961760;28;20409;-58
2022/07/15 00:32:50;;;;;;;9.15;1.95;;;14.20;99.90;;;;;;4962703;28;20489;-58
2022/07/15 00:35:16;;;;;;;8.18;1.63;;;14.10;99.90;;;;;;4965630;28;20137;-58
2022/07/15 00:37:42;;;;;;;9.63;1.75;;;14.10;99.90;;;;;;4965731;28;20141;-56
2022/07/15 00:40:08;;;;;;;13.10;2.40;;;14.20;99.90;;;;;;4966249;28;20070;-58
2022/07/15 00:42:45;;;;;;;7.03;1.92;;;14.20;99.90;;;;;;4965931;28;20081;-58
2022/07/15 00:45:13;;;;;;;14.07;2.35;;;14.20;99.90;;;;;;4964985;28;20062;-58
2022/07/15 00:47:41;;;;;;;7.50;1.70;;;14.20;99.90;;;;;;4965565;28;20039;-58
2022/07/15 00:50:07;;;;;;;8.95;2.10;;;14.10;99.90;;;;;;4965759;28;20046;-58
2022/07/15 00:52:38;;;;;;;7.53;1.60;;;14.10;99.90;;;;;;4964955;28;20051;-58
2022/07/15 00:55:06;;;;;;;7.07;1.63;;;14.10;99.90;;;;;;4965572;28;20097;-57
2022/07/15 00:57:35;;;;;;;8.60;1.95;;;14.00;99.90;;;;;;4965498;28;20133;-59
2022/07/15 01:00:05;;;;;;;8.40;1.73;;;14.00;99.90;;;;;;4964478;28;20038;-58
2022/07/15 01:02:32;;;;;;;7.88;1.80;;;13.90;99.90;;;;;;4964158;28;20046;-58
2022/07/15 01:05:00;;;;;;;8.38;2.15;;;13.90;99.90;;;;;;4965338;28;20046;-58
2022/07/15 01:07:26;;;;;;;9.13;1.95;;;14.00;99.90;;;;;;4972760;28;20474;-58
2022/07/15 01:09:51;;;;;;;8.80;1.70;;;13.90;99.90;;;;;;4967632;28;20054;-57
2022/07/15 01:12:17;;;;;;;9.10;1.42;;;14.00;99.90;;;;;;4963626;28;20038;-57
2022/07/15 01:14:43;;;;;;;9.18;1.77;;;14.00;99.90;;;;;;4965191;28;20051;-57
2022/07/15 01:17:11;;;;;;;9.73;2.00;;;14.00;99.90;;;;;;4964028;28;20047;-58
2022/07/15 01:19:38;;;;;;;6.15;1.52;;;14.00;99.90;;;;;;4964934;28;20043;-57
2022/07/15 01:22:05;;;;;;;6.45;1.70;;;14.10;99.90;;;;;;4983823;28;20038;-57
2022/07/15 01:24:31;;;;;;;7.18;1.80;;;14.20;99.90;;;;;;4984426;28;20049;-58
2022/07/15 01:26:56;;;;;;;9.15;1.70;;;14.10;99.90;;;;;;4984074;28;20486;-58
2022/07/15 01:29:22;;;;;;;13.07;2.03;;;14.20;99.90;;;;;;4984483;28;20118;-59
2022/07/15 01:31:47;;;;;;;10.93;2.00;;;14.10;99.90;;;;;;4983564;28;20046;-57
2022/07/15 01:34:13;;;;;;;9.90;1.80;;;14.10;99.90;;;;;;4984706;28;20068;-58
2022/07/15 01:36:39;;;;;;;5.03;1.60;;;14.10;99.90;;;;;;4983962;28;20070;-57
2022/07/15 01:39:04;;;;;;;8.15;1.85;;;14.00;99.90;;;;;;4984213;28;20041;-57
2022/07/15 01:41:30;;;;;;;8.48;2.05;;;14.00;99.90;;;;;;4983914;28;20035;-58
2022/07/15 01:43:56;;;;;;;7.90;1.45;;;13.90;99.90;;;;;;5015025;28;20088;-58
2022/07/15 01:46:21;;;;;;;9.95;1.85;;;13.90;99.90;;;;;;5014477;28;20082;-58
2022/07/15 01:51:31;;;;;;;6.63;2.13;;;13.70;99.90;;;;;;4983311;28;20049;-58
2022/07/15 01:53:57;;;;;;;12.00;2.10;;;13.70;99.90;;;;;;4984185;28;20050;-58
2022/07/15 01:56:23;;;;;;;8.30;2.15;;;13.60;99.90;;;;;;4984131;28;20665;-58
2022/07/15 01:58:49;;;;;;;10.15;2.00;;;13.60;99.90;;;;;;4982567;28;20191;-58
2022/07/15 02:01:17;;;;;;;9.80;1.85;;;13.60;99.90;;;;;;4982539;28;20062;-57
2022/07/15 02:03:44;;;;;;;12.57;2.35;;;13.70;99.90;;;;;;4984127;28;20517;-57
2022/07/15 02:06:09;;;;;;;6.15;1.80;;;13.70;99.90;;;;;;4982029;28;20485;-58
2022/07/15 02:08:35;;;;;;;9.25;1.83;;;13.80;99.90;;;;;;4972420;28;20704;-58
2022/07/15 02:11:01;;;;;;;7.10;1.80;;;13.60;99.90;;;;;;4964357;28;20047;-58
2022/07/15 02:13:26;;;;;;;10.13;2.15;;;13.60;99.90;;;;;;4964083;28;20042;-58
2022/07/15 02:15:52;;;;;;;11.63;2.30;;;13.50;99.90;;;;;;4963535;28;20093;-58
2022/07/15 02:18:18;;;;;;;7.38;1.90;;;13.40;99.90;;;;;;4963137;28;20058;-58
2022/07/15 02:20:43;;;;;;;9.68;2.20;;;13.40;99.90;;;;;;4964631;28;20050;-57
2022/07/15 02:23:09;;;;;;;10.10;2.10;;;13.40;99.90;;;;;;4995272;28;20039;-58
2022/07/15 02:25:35;;;;;;;9.05;2.00;;;13.50;99.90;;;;;;4963450;28;20300;-58
2022/07/15 02:28:03;;;;;;;8.25;1.83;;;13.60;99.90;;;;;;4963273;28;20046;-58
2022/07/15 02:30:36;;;;;;;12.65;2.35;;;13.60;99.90;;;;;;4994503;28;20054;-58
2022/07/15 02:33:02;;;;;;;11.70;2.10;;;13.50;99.90;;;;;;4963491;28;20113;-59
2022/07/15 02:35:29;;;;;;;12.70;2.25;;;13.40;99.90;;;;;;4963153;28;20556;-58
2022/07/15 02:37:54;;;;;;;11.00;2.47;;;13.30;99.90;;;;;;4964132;28;20038;-58
2022/07/15 02:40:21;;;;;;;8.45;1.73;;;13.30;99.90;;;;;;4963302;28;20688;-57
2022/07/15 02:42:55;;;;;;;6.47;1.98;;;13.30;99.90;;;;;;4963320;28;20042;-58
2022/07/15 02:45:23;;;;;;;;;;;13.30;99.90;;;;;;4963292;28;20133;-61
2022/07/15 02:47:49;;;;;;;8.68;1.98;;;13.20;99.90;;;;;;4963556;28;20313;-59
2022/07/15 02:50:16;;;;;;;10.05;2.20;;;13.10;99.90;;;;;;4963673;28;20047;-56
2022/07/15 02:52:42;;;;;;;10.40;2.10;;;13.10;99.90;;;;;;4962395;28;20051;-57
2022/07/15 02:55:10;;;;;;;8.05;2.15;;;13.00;99.90;;;;;;4963514;28;20724;-58
2022/07/15 02:57:36;;;;;;;6.97;1.83;;;13.00;99.90;;;;;;4993302;28;20360;-58
2022/07/15 03:00:05;;;;;;;9.48;2.25;;;13.10;99.90;;;;;;4961748;28;20498;-58
2022/07/15 03:02:31;;;;;;;9.45;1.70;;;13.00;99.90;;;;;;4963260;28;20414;-57
2022/07/15 03:04:57;;;;;;;8.90;1.92;;;12.90;99.90;;;;;;4963823;28;20039;-58
2022/07/15 03:07:23;;;;;;;11.63;2.40;;;12.90;99.90;;;;;;4970732;28;20101;-58
2022/07/15 03:09:49;;;;;;;5.47;1.55;;;12.90;99.90;;;;;;4966016;28;20057;-58
2022/07/15 03:12:15;;;;;;;7.53;2.00;;;12.90;99.90;;;;;;4963504;28;20039;-58
2022/07/15 03:14:41;;;;;;;6.95;1.88;;;12.90;99.90;;;;;;4962652;28;20047;-58
2022/07/15 03:17:07;;;;;;;8.57;2.00;;;12.90;99.90;;;;;;4961092;28;20065;-58
2022/07/15 03:19:33;;;;;;;7.82;2.00;;;13.00;99.90;;;;;;4963057;28;20043;-58
2022/07/15 03:21:58;;;;;;;6.78;1.85;;;12.90;99.90;;;;;;4963360;28;20054;-58
2022/07/15 03:24:24;;;;;;;9.20;1.60;;;12.90;99.90;;;;;;4962802;28;20047;-57
2022/07/15 03:26:50;;;;;;;8.57;1.90;;;12.90;99.90;;;;;;4962051;28;20057;-58
2022/07/15 03:29:16;;;;;;;7.60;1.92;;;12.90;99.90;;;;;;4961301;28;20046;-57
2022/07/15 03:31:43;;;;;;;9.30;1.75;;;12.90;99.90;;;;;;4962925;28;20117;-55
2022/07/15 03:34:10;;;;;;;8.98;1.92;;;12.90;99.90;;;;;;4963237;28;20829;-58
2022/07/15 03:36:39;;;;;;;6.85;2.20;;;12.80;99.90;;;;;;4962058;28;20815;-58
2022/07/15 03:39:06;;;;;;;6.78;1.48;;;12.60;99.90;;;;;;4962824;28;20256;-58
2022/07/15 03:41:33;;;;;;;7.90;2.20;;;12.60;99.90;;;;;;4962472;28;20146;-58
2022/07/15 03:44:00;;;;;;;8.25;1.95;;;12.60;99.90;;;;;;4962655;28;20422;-57
2022/07/15 03:46:26;;;;;;;7.60;1.90;;;12.60;99.90;;;;;;4961836;28;20043;-58
2022/07/15 03:48:53;;;;;;;5.05;1.90;;;12.50;99.90;;;;;;4962738;28;20086;-58
2022/07/15 03:51:18;;;;;;;7.93;1.52;;;12.70;99.90;;;;;;4962232;28;20457;-57
2022/07/15 03:53:44;;;;;;;5.68;1.77;;;12.60;99.90;;;;;;4963256;28;20043;-57
2022/07/15 03:56:10;;;;;;;10.23;1.83;;;12.60;99.90;;;;;;4962714;28;20058;-58
2022/07/15 03:58:35;;;;;;;8.82;2.10;;;12.50;99.90;;;;;;4962550;28;20053;-58
2022/07/15 04:01:01;;;;;;;8.85;2.05;;;12.50;99.90;;;;;;4961558;28;20137;-58
2022/07/15 04:03:27;;;;;;;6.75;1.90;;;12.50;99.90;;;;;;4962668;28;20045;-58
2022/07/15 04:05:53;;;;;;;5.25;1.55;;;12.60;99.90;;;;;;4962944;28;20076;-58
2022/07/15 04:08:18;;;;;;;10.00;2.10;;;12.60;99.90;;;;;;4973613;28;20046;-58
2022/07/15 04:10:44;;;;;;;9.40;1.80;;;12.60;99.90;;;;;;4966215;28;20047;-58
2022/07/15 04:13:10;;;;;;;7.20;1.60;;;12.60;99.90;;;;;;4966491;28;20117;-58
2022/07/15 04:15:35;;;;;;;9.90;1.70;;;12.70;99.90;;;;;;4965421;28;20094;-58
2022/07/15 04:18:01;;;;;;;6.88;1.65;;;12.70;99.90;;;;;;4966778;28;20496;-58
2022/07/15 04:20:27;;;;;;;7.85;2.13;;;12.70;99.90;;;;;;4964552;28;20633;-58
2022/07/15 04:22:53;;;;;;;7.70;1.80;;;12.80;99.90;;;;;;4966149;28;20049;-58
2022/07/15 04:25:20;;;;;;;6.10;1.70;;;12.80;99.90;;;;;;4966260;28;20064;-58
2022/07/15 04:27:50;;;;;;;6.47;1.95;;;12.80;99.90;;;;;;4966036;28;20409;-58
2022/07/15 04:30:15;;;;;;;6.40;1.63;;;12.80;99.90;;;;;;4966267;28;20050;-57
2022/07/15 04:32:41;;;;;;;7.75;1.80;;;12.70;99.90;;;;;;4966382;28;20604;-58
2022/07/15 04:35:08;;;;;;;4.82;1.45;;;12.70;99.90;;;;;;4965769;28;20154;-58
2022/07/15 04:37:34;;;;;;;8.95;1.50;;;12.80;99.90;;;;;;4965441;28;20043;-58
2022/07/15 04:39:59;;;;;;;8.32;1.70;;;12.80;99.90;;;;;;4965815;28;20521;-58
2022/07/15 04:42:25;;;;;;;7.05;1.80;;;12.90;99.90;;;;;;4965607;28;20043;-58
2022/07/15 04:44:51;;;;;;;7.03;1.85;;;12.80;99.90;;;;;;4965379;28;20055;-58
2022/07/15 04:47:17;;;;;;;5.78;1.65;;;12.80;99.90;;;;;;4965773;28;20506;-56
2022/07/15 04:52:30;;;;;;;6.47;1.50;;;13.00;99.90;;;;;;4964763;28;20046;-57
2022/07/15 04:54:56;;;;;;;5.90;2.05;;;13.00;99.90;;;;;;4965769;28;20054;-56
2022/07/15 04:57:21;;;;;;;4.72;1.52;;;13.00;99.90;;;;;;4965377;28;20485;-58
2022/07/15 04:59:47;;;;;;;8.43;1.70;;;13.00;99.90;;;;;;4996591;28;20050;-57
2022/07/15 05:02:13;;;;;;;6.55;1.77;;;13.00;99.90;;;;;;4965351;28;20465;-59
2022/07/15 05:04:39;;;;;;;6.78;1.60;;;13.00;99.90;;;;;;4965399;28;20050;-58
2022/07/15 05:07:06;;;;;;;8.20;1.48;;;13.00;99.90;;;;;;4970674;28;20923;-59
2022/07/15 05:09:31;;;;;;;8.32;1.77;;;12.90;99.90;;;;;;5001291;28;20086;-58
2022/07/15 05:11:57;;;;;;;7.90;1.73;;;13.10;99.90;;;;;;4965111;28;20075;-57
2022/07/15 05:14:23;;;;;;;8.70;2.10;;;13.00;99.90;;;;;;4964460;28;20086;-59
2022/07/15 05:16:49;;;;;;;7.60;1.67;;;13.10;99.90;;;;;;4965703;28;20101;-57
2022/07/15 05:19:15;;;;;;;5.13;1.45;;;13.00;99.90;;;;;;4965128;28;20133;-59
2022/07/15 05:21:40;;;;;;;6.38;1.70;;;13.10;99.90;;;;;;4963936;28;20246;-58
2022/07/15 05:24:06;;;;;;;8.48;1.67;;;13.10;99.90;;;;;;4965129;28;20081;-57
2022/07/15 05:26:32;;;;;;;6.60;1.70;;;13.20;99.90;;;;;;4965098;28;20035;-58
2022/07/15 05:28:59;;;;;;;4.30;1.25;;;13.30;99.90;;;;;;4964274;28;20046;-57
2022/07/15 05:31:25;;;;;;;5.85;1.55;;;13.60;99.90;;;;;;4964142;28;20054;-58
2022/07/15 05:33:52;;;;;;;6.38;1.50;;;13.80;99.90;;;;;;4996411;28;20261;-57
2022/07/15 05:36:18;;;;;;;8.75;1.73;;;13.70;99.90;;;;;;4964280;28;20072;-57
2022/07/15 05:38:44;;;;;;;7.40;1.40;;;13.70;99.90;;;;;;4965114;28;20031;-58
2022/07/15 05:41:11;;;;;;;6.30;1.20;;;13.70;99.90;;;;;;4964726;28;20049;-58
2022/07/15 05:43:37;;;;;;;5.80;1.63;;;13.70;99.90;;;;;;4964802;28;20540;-58
2022/07/15 05:46:03;;;;;;;6.90;1.85;;;13.80;99.90;;;;;;4963750;28;20053;-57
2022/07/15 05:48:29;;;;;;;7.75;1.40;;;13.70;99.90;;;;;;4964412;28;20058;-58
2022/07/15 05:50:55;;;;;;;6.40;1.50;;;13.80;99.90;;;;;;4964503;28;20118;-58
2022/07/15 05:53:22;;;;;;;6.10;1.40;;;13.80;99.90;;;;;;4964738;28;20051;-58
2022/07/15 05:55:47;;;;;;;5.90;1.20;;;13.80;99.90;;;;;;4964214;28;20130;-57
2022/07/15 05:58:13;;;;;;;6.75;1.60;;;13.90;99.90;;;;;;4964838;28;20465;-58
2022/07/15 06:00:39;;;;;;;7.63;1.50;;;14.10;99.90;;;;;;4963864;28;20051;-58
2022/07/15 06:03:05;;;;;;;5.72;1.55;;;14.80;99.90;;;;;;4995021;28;20042;-58
2022/07/15 06:05:31;;;;;;;5.85;1.17;;;15.30;99.90;;;;;;4963743;28;20050;-58
2022/07/15 06:07:57;;;;;;;3.13;1.00;;;15.60;99.90;;;;;;5006397;28;20053;-57
2022/07/15 06:10:23;;;;;;;4.13;0.90;;;15.80;99.90;;;;;;4964172;28;20085;-58
2022/07/15 06:12:48;;;;;;;4.22;1.00;;;16.20;99.90;;;;;;4963962;28;20067;-58
2022/07/15 06:15:14;;;;;;;6.53;1.25;;;16.10;99.90;;;;;;4963546;28;20058;-60
2022/07/15 06:17:40;;;;;;;5.72;1.00;;;16.60;99.90;;;;;;4964049;28;20054;-58
2022/07/15 06:20:07;;;;;;;4.07;0.88;;;16.90;99.90;;;;;;4963859;28;20144;-58
2022/07/15 06:22:33;;;;;;;4.82;0.82;;;16.60;99.90;;;;;;4963108;28;20050;-58
2022/07/15 06:24:58;;;;;;;5.45;0.80;;;17.20;99.90;;;;;;4963915;28;20035;-58
2022/07/15 06:27:24;;;;;;;3.85;0.70;;;17.40;99.90;;;;;;4964120;28;20108;-58
2022/07/15 06:29:51;;;;;;;4.43;1.00;;;17.50;99.90;;;;;;4962882;28;20683;-58
2022/07/15 06:32:18;;;;;;;4.68;0.85;;;17.20;99.90;;;;;;4963164;28;20047;-56
2022/07/15 06:34:44;;;;;;;4.43;1.08;;;16.80;99.90;;;;;;4964010;28;20039;-57
2022/07/15 06:37:10;;;;;;;4.43;0.90;;;16.50;99.90;;;;;;4963617;28;20043;-58
2022/07/15 06:39:36;;;;;;;4.30;0.90;;;16.40;99.90;;;;;;4963382;28;20366;-58
2022/07/15 06:42:02;;;;;;;6.05;0.90;;;16.30;99.90;;;;;;4994778;28;20047;-58
2022/07/15 06:44:28;;;;;;;8.02;0.85;;;16.20;99.90;;;;;;4963016;28;20454;-58
2022/07/15 06:46:53;;;;;;;4.05;1.02;;;16.10;99.90;;;;;;4963532;28;20169;-58
2022/07/15 06:49:19;;;;;;;3.45;0.77;;;16.10;99.90;;;;;;4962389;28;20137;-57
2022/07/15 06:51:44;;;;;;;5.20;0.93;;;16.10;99.90;;;;;;4963784;28;20046;-58
2022/07/15 06:54:11;;;;;;;2.92;0.70;;;16.20;99.90;;;;;;4963623;28;20042;-58
2022/07/15 06:56:37;;;;;;;9.60;0.98;;;16.20;99.90;;;;;;4994098;28;20502;-58
2022/07/15 06:59:03;;;;;;;4.65;0.82;;;16.20;99.90;;;;;;4962629;28;20372;-58
2022/07/15 07:01:29;;;;;;;3.78;0.63;;;16.20;99.90;;;;;;4963269;28;20049;-58
2022/07/15 07:03:55;;;;;;;4.88;0.68;;;16.30;99.90;;;;;;4962317;28;20490;-58
2022/07/15 07:06:21;;;;;;;3.47;0.50;;;16.40;99.90;;;;;;4964716;28;20493;-57
2022/07/15 07:08:47;;;;;;;3.22;0.93;;;16.40;99.90;;;;;;4971944;28;20054;-57
2022/07/15 07:11:17;;;;;;;7.43;1.27;;;16.30;99.90;;;;;;4963379;28;20125;-59
2022/07/15 07:13:43;;;;;;;3.47;0.70;;;16.20;99.90;;;;;;4963795;28;20203;-58
2022/07/15 07:16:08;;;;;;;3.22;0.60;;;16.00;99.90;;;;;;4975522;28;20168;-58
2022/07/15 07:18:34;;;;;;;3.00;0.65;;;15.90;99.90;;;;;;4980722;28;20050;-58
2022/07/15 07:21:01;;;;;;;2.97;0.70;;;16.00;99.90;;;;;;4982279;28;20073;-58
2022/07/15 07:23:27;;;;;;;2.42;0.57;;;15.90;99.90;;;;;;4981025;28;20401;-58
2022/07/15 07:25:53;;;;;;;2.55;0.80;;;16.10;99.90;;;;;;4982266;28;20050;-59
2022/07/15 07:28:19;;;;;;;3.55;0.63;;;16.20;99.90;;;;;;4982458;28;20113;-57
2022/07/15 07:30:46;;;;;;;2.67;0.60;;;16.40;99.90;;;;;;4980518;28;20050;-57
2022/07/15 07:33:12;;;;;;;3.58;0.80;;;17.00;99.90;;;;;;5013931;28;20054;-58
2022/07/15 07:35:38;;;;;;;2.78;0.68;;;17.40;99.90;;;;;;4981999;28;20034;-58
2022/07/15 07:38:04;;;;;;;3.45;0.70;;;17.90;99.90;;;;;;4982073;28;20065;-58
2022/07/15 07:40:30;;;;;;;3.53;0.50;;;17.90;99.90;;;;;;4981835;28;20046;-58
2022/07/15 07:42:56;;;;;;;2.33;0.50;;;18.20;99.90;;;;;;4981269;28;20113;-56
2022/07/15 07:45:23;;;;;;;2.53;0.60;;;18.10;99.90;;;;;;4979809;28;20050;-57
2022/07/15 07:47:49;;;;;;;2.30;0.70;;;17.80;99.90;;;;;;4981871;28;20049;-59
2022/07/15 07:50:15;;;;;;;4.30;0.50;;;17.80;99.90;;;;;;4982241;28;20050;-58
2022/07/15 07:52:41;;;;;;;3.58;0.68;;;17.60;99.90;;;;;;4982585;28;20238;-59
2022/07/15 07:55:08;;;;;;;3.42;0.65;;;17.20;99.90;;;;;;4982238;28;20050;-58
2022/07/15 07:57:34;;;;;;;1.92;0.50;;;16.90;99.90;;;;;;4980436;28;20078;-58
2022/07/15 08:00:01;;;;;;;3.92;0.60;;;16.80;99.90;;;;;;4979490;28;20049;-58
2022/07/15 08:02:26;;;;;;;4.75;0.52;;;16.70;99.90;;;;;;4982053;28;20073;-58
2022/07/15 08:04:52;;;;;;;4.60;0.80;;;16.60;99.90;;;;;;4982003;28;20461;-57
2022/07/15 08:07:19;;;;;;;4.85;0.70;;;16.60;99.90;;;;;;4975362;28;20074;-58
2022/07/15 08:09:45;;;;;;;3.20;0.52;;;16.70;99.90;;;;;;4966147;28;20047;-62
2022/07/15 08:12:10;;;;;;;2.33;0.60;;;16.60;99.90;;;;;;4962605;28;20511;-57
2022/07/15 08:14:36;;;;;;;1.75;0.47;;;16.70;99.90;;;;;;4961844;28;20549;-57
2022/07/15 08:17:02;;;;;;;4.43;0.80;;;16.80;99.90;;;;;;4996074;28;20142;-58
2022/07/15 08:19:27;;;;;;;7.18;0.88;;;16.80;99.90;;;;;;5000863;28;20045;-57
2022/07/15 08:21:53;;;;;;;3.03;0.70;;;17.20;99.90;;;;;;5001662;28;20500;-57
2022/07/15 08:24:19;;;;;;;4.30;0.80;;;17.50;99.90;;;;;;5001187;28;20115;-57
2022/07/15 08:26:44;;;;;;;5.32;0.73;;;17.70;99.90;;;;;;5001229;28;20401;-58
2022/07/15 08:29:11;;;;;;;5.65;0.95;;;18.00;99.90;;;;;;5000700;28;20130;-57
2022/07/15 08:31:38;;;;;;;1.95;0.60;;;18.10;99.90;;;;;;5001453;28;20125;-58
2022/07/15 08:34:07;;;;;;;6.28;0.98;;;18.30;99.90;;;;;;5001083;28;20536;-57
2022/07/15 08:36:33;;;;;;;4.15;0.68;;;18.70;99.90;;;;;;5000464;28;20054;-57
2022/07/15 08:39:00;;;;;;;4.03;0.98;;;18.60;99.90;;;;;;4999807;28;20132;-57
2022/07/15 08:41:26;;;;;;;6.28;0.80;;;18.20;99.90;;;;;;4981653;28;20104;-57
2022/07/15 08:43:51;;;;;;;3.40;0.70;;;18.00;99.90;;;;;;4980632;28;20054;-58
2022/07/15 08:46:19;;;;;;;5.07;0.70;;;18.10;99.90;;;;;;4981436;28;20046;-56
2022/07/15 08:49:02;;;;;;;3.53;1.00;;;18.10;99.90;;;;;;4982534;28;20050;-57
2022/07/15 08:51:29;;;;;;;4.07;0.80;;;18.10;99.90;;;;;;4987126;28;20057;-59
2022/07/15 08:53:55;;;;;;;3.38;0.80;;;18.20;99.90;;;;;;4990605;28;20030;-58
2022/07/15 08:56:22;;;;;;;4.18;0.75;;;18.90;99.90;;;;;;4993342;28;20524;-59
2022/07/15 08:58:48;;;;;;;3.50;0.85;;;18.90;99.90;;;;;;4989412;28;20050;-59
2022/07/15 09:01:13;;;;;;;3.85;0.65;;;18.30;99.90;;;;;;4983384;28;20069;-60
2022/07/15 09:03:39;;;;;;;6.35;0.80;;;18.20;99.90;;;;;;4984947;28;20150;-59
2022/07/15 09:06:05;;;;;;;6.18;0.60;;;17.90;99.90;;;;;;4982789;28;20046;-59
2022/07/15 09:08:31;;;;;;;6.88;0.70;;;18.00;99.90;;;;;;4980251;28;20043;-59
2022/07/15 09:10:59;;;;;;;1.23;0.47;;;18.20;99.90;;;;;;4984064;28;20046;-59
2022/07/15 09:13:39;;;;;;;0.90;0.30;;;18.40;99.90;;;;;;4984473;28;20046;-59
2022/07/15 09:16:11;;;;;;;1.55;0.20;;;18.70;99.90;;;;;;4976629;28;20156;-60
2022/07/15 09:18:42;;;;;;;2.50;0.30;;;18.60;99.90;;;;;;4983295;28;20042;-59
2022/07/15 09:21:15;;;;;;;2.05;0.40;;;19.10;99.90;;;;;;4983477;28;20050;-58
2022/07/15 09:23:40;;;;;;;2.72;0.20;;;19.00;99.90;;;;;;4983655;28;20121;-60
2022/07/15 09:26:29;;;;;;;1.27;0.38;;;19.30;99.90;;;;;;4982893;28;20181;-60
2022/07/15 09:28:56;;;;;;;1.92;0.30;;;19.40;99.90;;;;;;4981305;28;20117;-60
2022/07/15 09:34:17;;;;;;;1.40;0.40;;;19.40;99.90;;;;;;4984544;28;20061;-59
2022/07/15 09:36:46;;;;;;;2.42;0.70;;;19.70;99.90;;;;;;4984299;28;20050;-60
2022/07/15 09:39:12;;;;;;;28.02;3.13;;;20.10;99.90;;;;;;4983046;28;20092;-59
2022/07/15 09:41:40;;;;;;;3.75;0.50;;;20.50;99.90;;;;;;4984108;28;20420;-59
2022/07/15 09:44:20;;;;;;;1.40;0.43;;;20.20;99.90;;;;;;4981607;28;20054;-59
2022/07/15 09:46:57;;;;;;;2.08;0.32;;;20.10;99.90;;;;;;4984215;28;20413;-60
2022/07/15 09:49:22;;;;;;;9.13;1.08;;;20.30;99.90;;;;;;4983569;28;20042;-59
2022/07/15 09:51:54;;;;;;;1.75;0.40;;;20.40;99.90;;;;;;4983915;28;20042;-60
2022/07/15 09:54:31;;;;;;;1.75;0.30;;;20.90;99.90;;;;;;4982383;28;20058;-59
2022/07/15 09:56:59;;;;;;;3.17;0.63;;;21.00;99.90;;;;;;4983122;28;20093;-60
2022/07/15 09:59:26;;;;;;;1.63;0.38;;;20.50;99.90;;;;;;4983065;28;20049;-59
2022/07/15 10:01:51;;;;;;;3.05;0.43;;;20.90;99.90;;;;;;4983715;28;20125;-59
2022/07/15 10:04:20;;;;;;;4.25;0.52;;;20.70;99.90;;;;;;4983344;28;20565;-59
2022/07/15 10:06:52;;;;;;;1.10;0.30;;;20.70;99.90;;;;;;4976981;28;20054;-60
2022/07/15 10:09:30;;;;;;;1.80;0.50;;;20.60;99.90;;;;;;4978585;28;20134;-59
2022/07/15 10:12:09;;;;;;;2.28;0.52;;;20.80;99.90;;;;;;4994771;28;20085;-63
2022/07/15 10:14:55;;;;;;;1.83;0.55;;;20.90;99.90;;;;;;4963314;28;20421;-59
2022/07/15 10:17:55;;;;;;;1.40;0.47;;;20.50;99.90;;;;;;4963157;28;20049;-58
2022/07/15 10:20:58;;;;;;;4.13;0.57;;;19.80;99.90;;;;;;4963995;28;20485;-59
2022/07/15 10:23:39;;;;;;;3.65;1.73;;;19.50;99.90;;;;;;4963763;28;20050;-59
2022/07/15 10:26:12;;;;;;;4.68;0.60;;;19.10;99.90;;;;;;4962718;28;20514;-59
2022/07/15 10:29:01;;;;;;;4.53;1.17;;;19.30;99.90;;;;;;4962784;28;20129;-59
2022/07/15 10:31:30;;;;;;;89.45;6.22;;;19.10;99.90;;;;;;4963552;28;20047;-58
2022/07/15 10:34:02;;;;;;;5.28;1.23;;;18.90;99.90;;;;;;4972224;28;20046;-58
2022/07/15 10:36:47;;;;;;;2.67;0.77;;;19.10;99.90;;;;;;4986121;28;20082;-58
2022/07/15 10:39:26;;;;;;;13.07;1.70;;;19.20;99.90;;;;;;5003070;28;20042;-59
2022/07/15 10:42:04;;;;;;;6.50;0.93;;;19.10;99.90;;;;;;5001689;28;20473;-59
2022/07/15 10:44:36;;;;;;;2.88;0.43;;;19.20;99.90;;;;;;5001625;28;20041;-58
2022/07/15 10:47:14;;;;;;;2.47;0.60;;;19.50;99.90;;;;;;5002341;28;20050;-60
2022/07/15 10:49:41;;;;;;;2.75;0.50;;;19.20;99.90;;;;;;5002579;28;20038;-59
2022/07/15 10:52:16;;;;;;;3.05;0.52;;;19.50;99.90;;;;;;5002366;28;20132;-59
2022/07/15 10:54:44;;;;;;;1.95;0.45;;;19.50;99.90;;;;;;5000875;28;20180;-58
2022/07/15 10:57:10;;;;;;;2.72;0.63;;;19.70;99.90;;;;;;5002227;28;20042;-58
2022/07/15 10:59:41;;;;;;;3.67;0.68;;;19.70;99.90;;;;;;5001308;28;20049;-59
2022/07/15 11:02:06;;;;;;;3.40;0.50;;;19.80;99.90;;;;;;5002097;28;20062;-59
2022/07/15 11:04:33;;;;;;;4.78;0.73;;;20.00;99.90;;;;;;5001829;28;20064;-59
2022/07/15 11:07:02;;;;;;;2.72;0.40;;;20.10;99.90;;;;;;4984760;28;20050;-59
2022/07/15 11:09:47;;;;;;;3.50;0.50;;;20.20;99.90;;;;;;4968824;28;20468;-59
2022/07/15 11:12:14;;;;;;;2.47;0.52;;;20.30;99.90;;;;;;4966562;28;20047;-59
2022/07/15 11:14:47;;;;;;;2.03;0.43;;;20.50;99.90;;;;;;4987676;28;20112;-60
2022/07/15 11:17:17;;;;;;;2.78;0.60;;;20.60;99.90;;;;;;4982177;28;20058;-60
2022/07/15 11:19:46;;;;;;;2.03;0.55;;;20.50;99.90;;;;;;4980921;28;20042;-56
2022/07/15 11:22:12;;;;;;;3.70;1.02;;;20.30;99.90;;;;;;4993000;28;20037;-56
2022/07/15 11:24:38;;;;;;;2.67;0.88;;;20.30;99.90;;;;;;4984718;28;20043;-57
2022/07/15 11:27:04;;;;;;;4.85;2.22;;;20.30;99.90;;;;;;4980632;28;20038;-57
2022/07/15 11:29:51;;;;;;;3.72;1.27;;;20.10;99.90;;;;;;4980851;28;20584;-56
2022/07/15 11:32:19;;;;;;;4.47;1.38;;;19.90;99.90;;;;;;4980870;28;20137;-59
2022/07/15 11:34:51;;;;;;;2.35;0.57;;;19.90;99.90;;;;;;4984196;28;20042;-58
2022/07/15 11:37:20;;;;;;;1.45;0.40;;;19.80;99.90;;;;;;4994527;28;20032;-62
2022/07/15 11:39:48;;;;;;;1.15;0.40;;;19.90;99.90;;;;;;5001254;28;20086;-58
2022/07/15 11:45:07;;;;;;;10.02;0.70;;;19.50;99.90;;;;;;4987920;28;20080;-58
2022/07/15 11:47:33;;;;;;;7.63;1.05;;;19.60;99.90;;;;;;4980653;28;20468;-59
2022/07/15 11:50:04;;;;;;;2.40;0.40;;;19.40;99.90;;;;;;4981138;28;20129;-59
2022/07/15 11:52:30;;;;;;;2.10;0.60;;;19.30;99.90;;;;;;4979155;28;20101;-58
2022/07/15 11:54:56;;;;;;;2.72;0.80;;;18.90;99.90;;;;;;4981002;28;20039;-60
2022/07/15 11:57:22;;;;;;;3.83;0.60;;;18.80;99.90;;;;;;4979989;28;20121;-59
2022/07/15 11:59:55;;;;;;;7.25;1.63;;;18.80;99.90;;;;;;4992994;28;20046;-59
2022/07/15 12:02:24;;;;;;;15.13;5.40;;;18.70;99.90;;;;;;5000066;28;20046;-59
2022/07/15 12:04:51;;;;;;;6.03;1.60;;;18.70;99.90;;;;;;4978557;28;20046;-59
2022/07/15 12:07:17;;;;;;;2.42;0.40;;;18.70;99.90;;;;;;4975466;28;20476;-59
2022/07/15 12:09:49;;;;;;;5.55;0.70;;;18.80;99.90;;;;;;4966265;28;20122;-59
2022/07/15 12:12:15;;;;;;;3.65;1.13;;;18.70;99.90;;;;;;4972426;28;20042;-58
2022/07/15 12:14:46;;;;;;;4.68;0.70;;;18.60;99.90;;;;;;4980689;28;20065;-59
2022/07/15 12:17:12;;;;;;;1.70;0.40;;;18.80;99.90;;;;;;4980330;28;20043;-58
2022/07/15 12:19:38;;;;;;;1.50;0.50;;;18.90;99.90;;;;;;4982932;28;20112;-58
2022/07/15 12:22:06;;;;;;;4.95;0.70;;;19.20;99.90;;;;;;4981662;28;20433;-59
2022/07/15 12:24:45;;;;;;;5.05;1.00;;;19.30;99.90;;;;;;4981518;28;20082;-58
2022/07/15 12:27:12;;;;;;;2.38;0.80;;;19.40;99.90;;;;;;4981682;28;20043;-59
2022/07/15 12:29:39;;;;;;;4.07;0.65;;;19.60;99.90;;;;;;4981885;28;20038;-58
2022/07/15 12:32:10;;;;;;;2.13;0.50;;;19.70;99.90;;;;;;4985590;28;20125;-59
2022/07/15 12:34:58;;;;;;;2.72;0.57;;;19.80;99.90;;;;;;4983770;28;20523;-58
2022/07/15 12:37:25;;;;;;;1.92;0.68;;;19.90;99.90;;;;;;4985630;28;20054;-58
2022/07/15 12:40:03;;;;;;;3.78;0.73;;;19.70;99.90;;;;;;4985192;28;20412;-59
2022/07/15 12:42:31;;;;;;;2.38;0.70;;;19.70;99.90;;;;;;4985099;28;20042;-59
2022/07/15 12:45:16;;;;;;;5.22;0.80;;;19.20;99.90;;;;;;4984862;28;20074;-58
2022/07/15 12:48:01;;;;;;;3.85;0.70;;;19.10;99.90;;;;;;4985817;28;20060;-59
2022/07/15 12:50:28;;;;;;;1.58;0.75;;;19.20;99.90;;;;;;4984298;28;20058;-58
2022/07/15 12:52:55;;;;;;;2.03;0.70;;;18.90;99.90;;;;;;4984749;28;20398;-59
2022/07/15 12:55:24;;;;;;;2.80;0.90;;;18.70;99.90;;;;;;4984677;28;20046;-65
2022/07/15 12:57:50;;;;;;;3.05;0.80;;;18.60;99.90;;;;;;4985224;28;20054;-59
2022/07/15 13:00:20;;;;;;;1.90;0.70;;;18.40;99.90;;;;;;4983902;28;20199;-59